createdAt,value
2018-07-05T00:01:42.689Z,2.67
2018-07-05T00:06:51.163Z,2.52
2018-07-05T00:11:59.524Z,2.62
2018-07-05T00:17:07.993Z,2.85
2018-07-05T00:22:16.123Z,2.67
2018-07-05T00:27:24.840Z,2.98
2018-07-05T00:32:33.855Z,2.72
2018-07-05T00:37:43.040Z,2.60
2018-07-05T00:42:53.791Z,2.30
2018-07-05T00:48:02.871Z,2.58
2018-07-05T00:53:12.969Z,2.50
2018-07-05T00:58:22.508Z,2.77
2018-07-05T01:03:30.814Z,2.70
2018-07-05T01:08:39.720Z,2.70
2018-07-05T01:13:47.995Z,3.00
2018-07-05T01:18:56.814Z,2.77
2018-07-05T01:24:06.096Z,2.37
2018-07-05T01:29:15.379Z,2.60
2018-07-05T01:34:23.685Z,2.37
2018-07-05T01:39:32.758Z,2.30
2018-07-05T01:44:41.068Z,2.40
2018-07-05T01:49:49.161Z,2.42
2018-07-05T01:54:57.375Z,2.47
2018-07-05T02:00:07.614Z,2.55
2018-07-05T02:05:16.496Z,2.50
2018-07-05T02:10:24.525Z,2.62
2018-07-05T02:15:33.054Z,2.50
2018-07-05T02:20:41.193Z,2.17
2018-07-05T02:25:49.600Z,2.37
2018-07-05T02:30:57.809Z,2.50
2018-07-05T02:36:06.212Z,2.50
2018-07-05T02:41:14.416Z,2.50
2018-07-05T02:46:23.836Z,4.03
2018-07-05T02:51:32.017Z,3.77
2018-07-05T02:56:40.380Z,3.75
2018-07-05T03:01:48.499Z,3.12
2018-07-05T03:06:57.408Z,3.12
2018-07-05T03:12:05.527Z,3.05
2018-07-05T03:17:13.787Z,3.00
2018-07-05T03:22:21.859Z,2.80
2018-07-05T03:27:30.200Z,2.85
2018-07-05T03:32:38.468Z,2.70
2018-07-05T03:37:46.613Z,3.10
2018-07-05T03:42:55.747Z,2.62
2018-07-05T03:48:04.056Z,2.70
2018-07-05T03:53:12.433Z,2.42
2018-07-05T03:58:20.596Z,2.95
2018-07-05T04:03:28.747Z,3.00
2018-07-05T04:08:36.881Z,2.60
2018-07-05T04:13:45.161Z,3.00
2018-07-05T04:18:53.436Z,2.70
2018-07-05T04:24:01.420Z,2.50
2018-07-05T04:29:09.620Z,3.00
2018-07-05T04:34:17.707Z,3.12
2018-07-05T04:39:25.692Z,3.17
2018-07-05T04:44:34.016Z,3.33
2018-07-05T04:49:42.220Z,2.92
2018-07-05T04:54:50.310Z,3.10
2018-07-05T04:59:58.464Z,4.25
2018-07-05T05:05:06.607Z,3.00
2018-07-05T05:10:14.800Z,2.95
2018-07-05T05:15:22.727Z,2.97
2018-07-05T05:20:30.803Z,3.00
2018-07-05T05:25:39.231Z,3.05
2018-07-05T05:30:47.540Z,2.90
2018-07-05T05:35:55.496Z,2.95
2018-07-05T05:41:03.901Z,3.25
2018-07-05T05:46:12.831Z,3.00
2018-07-05T05:51:21.167Z,3.33
2018-07-05T05:56:29.261Z,2.98
2018-07-05T06:01:37.384Z,3.20
2018-07-05T06:06:45.432Z,3.25
2018-07-05T06:11:53.531Z,3.30
2018-07-05T06:17:01.714Z,3.30
2018-07-05T06:22:09.697Z,3.55
2018-07-05T06:27:18.029Z,3.42
2018-07-05T06:32:26.191Z,3.25
2018-07-05T06:37:34.571Z,3.40
2018-07-05T06:42:42.896Z,3.45
2018-07-05T06:47:51.172Z,4.10
2018-07-05T06:52:59.552Z,4.03
2018-07-05T06:58:07.715Z,3.95
2018-07-05T07:03:15.797Z,3.60
2018-07-05T07:08:23.817Z,3.85
2018-07-05T07:13:31.719Z,4.10
2018-07-05T07:18:40.268Z,4.72
2018-07-05T07:23:48.400Z,4.87
2018-07-05T07:28:56.569Z,4.92
2018-07-05T07:34:04.692Z,5.35
2018-07-05T07:39:12.969Z,5.00
2018-07-05T07:44:15.816Z,5.50
2018-07-05T07:49:18.938Z,4.90
2018-07-05T07:54:21.158Z,4.37
2018-07-05T07:59:23.425Z,5.53
2018-07-05T08:04:26.351Z,4.10
2018-07-05T08:09:28.583Z,3.85
2018-07-05T08:14:31.690Z,4.33
2018-07-05T08:19:34.010Z,4.50
2018-07-05T08:24:36.147Z,3.90
2018-07-05T08:29:38.287Z,3.70
2018-07-05T08:34:41.885Z,4.08
2018-07-05T08:39:44.153Z,4.55
2018-07-05T08:44:46.409Z,4.08
2018-07-05T08:49:48.508Z,4.50
2018-07-05T08:54:51.619Z,4.47
2018-07-05T08:59:54.030Z,3.87
2018-07-05T09:04:56.044Z,4.15
2018-07-05T09:09:58.473Z,3.65
2018-07-05T09:15:04.433Z,3.50
2018-07-05T09:20:07.543Z,3.55
2018-07-05T09:25:12.843Z,3.62
2018-07-05T09:30:14.835Z,3.70
2018-07-05T09:35:17.032Z,3.40
2018-07-05T09:40:19.301Z,3.45
2018-07-05T09:45:25.954Z,3.20
2018-07-05T09:50:28.160Z,3.20
2018-07-05T09:55:30.375Z,3.42
2018-07-05T10:00:37.685Z,3.17
2018-07-05T10:05:39.632Z,3.27
2018-07-05T10:10:42.768Z,3.40
2018-07-05T10:15:44.957Z,3.25
2018-07-05T10:20:47.375Z,3.30
2018-07-05T10:25:49.621Z,3.05
2018-07-05T10:30:57.777Z,2.92
2018-07-05T10:36:00.007Z,3.15
2018-07-05T10:41:08.347Z,2.98
2018-07-05T10:46:16.526Z,3.10
2018-07-05T10:51:24.736Z,3.22
2018-07-05T10:56:33.078Z,3.17
2018-07-05T11:01:41.283Z,2.87
2018-07-05T11:06:49.448Z,3.02
2018-07-05T11:11:57.512Z,3.08
2018-07-05T11:17:05.679Z,2.77
2018-07-05T11:22:13.967Z,3.00
2018-07-05T11:27:22.146Z,2.72
2018-07-05T11:32:31.072Z,2.92
2018-07-05T11:37:39.505Z,2.92
2018-07-05T11:42:48.063Z,3.00
2018-07-05T11:47:56.268Z,3.60
2018-07-05T11:53:04.155Z,3.80
2018-07-05T11:58:12.325Z,3.00
2018-07-05T12:03:20.519Z,2.65
2018-07-05T12:08:28.583Z,3.40
2018-07-05T12:13:36.871Z,3.30
2018-07-05T12:18:45.064Z,2.50
2018-07-05T12:23:53.088Z,3.35
2018-07-05T12:29:01.225Z,2.80
2018-07-05T12:34:09.300Z,2.87
2018-07-05T12:39:17.370Z,2.30
2018-07-05T12:44:25.474Z,2.10
2018-07-05T12:49:33.665Z,2.08
2018-07-05T12:54:41.778Z,2.37
2018-07-05T12:59:49.848Z,2.50
2018-07-05T13:04:58.037Z,1.90
2018-07-05T13:10:06.851Z,1.95
2018-07-05T13:15:15.042Z,2.02
2018-07-05T13:20:23.332Z,2.00
2018-07-05T13:25:32.083Z,2.10
2018-07-05T13:30:40.083Z,2.05
2018-07-05T13:35:48.248Z,2.37
2018-07-05T13:40:57.113Z,1.92
2018-07-05T13:46:06.364Z,2.12
2018-07-05T13:51:14.646Z,2.37
2018-07-05T13:56:22.806Z,2.62
2018-07-05T14:01:31.450Z,2.67
2018-07-05T14:06:40.827Z,2.37
2018-07-05T14:11:49.255Z,2.08
2018-07-05T14:16:57.605Z,2.10
2018-07-05T14:32:51.146Z,1.98
2018-07-05T14:43:17.242Z,2.50
2018-07-05T14:48:25.713Z,2.70
2018-07-05T15:13:29.512Z,2.60
2018-07-05T15:18:52.509Z,2.40
2018-07-05T15:39:29.024Z,2.10
2018-07-05T15:44:38.719Z,2.60
2018-07-05T15:49:47.103Z,2.60
2018-07-05T15:54:56.836Z,2.55
2018-07-05T16:00:07.822Z,2.17
2018-07-05T16:10:39.193Z,2.12
2018-07-05T16:16:23.161Z,2.60
2018-07-05T16:21:40.350Z,2.50
2018-07-05T16:26:55.464Z,2.47
2018-07-05T16:32:06.055Z,2.55
2018-07-05T16:37:15.896Z,2.67
2018-07-05T16:42:25.135Z,2.30
2018-07-05T16:47:40.536Z,2.00
2018-07-05T16:52:48.969Z,2.12
2018-07-05T16:57:57.535Z,2.33
2018-07-05T17:03:05.923Z,1.90
2018-07-05T17:08:14.214Z,2.50
2018-07-05T17:13:22.611Z,2.10
2018-07-05T17:18:30.880Z,2.60
2018-07-05T17:23:39.075Z,2.05
2018-07-05T17:28:47.671Z,2.20
2018-07-05T17:33:55.998Z,2.42
2018-07-05T17:39:06.178Z,1.80
2018-07-05T17:44:14.285Z,1.92
2018-07-05T17:49:22.358Z,1.60
2018-07-05T17:54:30.577Z,1.75
2018-07-05T17:59:39.017Z,1.82
2018-07-05T18:04:47.141Z,2.02
2018-07-05T18:09:55.326Z,1.87
2018-07-05T18:15:06.687Z,2.20
2018-07-05T18:20:15.651Z,2.25
2018-07-05T18:25:23.887Z,2.83
2018-07-05T18:30:32.224Z,2.15
2018-07-05T18:35:41.095Z,3.90
2018-07-05T18:40:49.580Z,4.55
2018-07-05T18:45:58.890Z,6.17
2018-07-05T18:51:08.513Z,4.70
2018-07-05T18:56:17.480Z,2.35
2018-07-05T19:01:26.763Z,4.60
2018-07-05T19:06:34.809Z,4.50
2018-07-05T19:11:45.982Z,3.50
2018-07-05T19:16:54.451Z,5.55
2018-07-05T19:22:03.627Z,4.33
2018-07-05T19:27:12.045Z,3.90
2018-07-05T19:32:22.524Z,5.55
2018-07-05T19:37:30.635Z,6.10
2018-07-05T19:42:40.018Z,5.30
2018-07-05T19:47:48.429Z,6.17
2018-07-05T19:52:56.935Z,6.37
2018-07-05T19:58:05.561Z,5.87
2018-07-05T20:03:14.053Z,5.20
2018-07-05T20:08:22.505Z,4.30
2018-07-05T20:13:31.077Z,3.50
2018-07-05T20:18:40.358Z,3.40
2018-07-05T20:23:55.577Z,3.25
2018-07-05T20:29:06.446Z,2.98
2018-07-05T20:34:22.159Z,3.20
2018-07-05T20:39:35.958Z,3.47
2018-07-05T20:45:04.849Z,3.45
2018-07-05T20:55:45.705Z,3.52
2018-07-05T21:01:07.122Z,4.20
2018-07-05T21:06:25.614Z,3.72
2018-07-05T21:11:40.581Z,3.50
2018-07-05T21:33:16.193Z,3.47
2018-07-05T21:38:44.960Z,3.10
2018-07-05T21:54:50.975Z,3.10
2018-07-05T23:19:18.476Z,4.20
2018-07-05T23:24:35.528Z,4.42
